sensor_id;sensor_type;location;lat;lon;timestamp;temperature;humidity
32728;DHT22;55292;51.844;19.246;2023-07-24T00:04:42;18.60;95.70
32728;DHT22;55292;51.844;19.246;2023-07-24T00:09:44;18.40;96.80
32728;DHT22;55292;51.844;19.246;2023-07-24T00:14:47;18.40;97.20
32728;DHT22;55292;51.844;19.246;2023-07-24T00:19:50;18.30;97.00
32728;DHT22;55292;51.844;19.246;2023-07-24T00:24:52;18.40;96.80
32728;DHT22;55292;51.844;19.246;2023-07-24T00:29:55;18.40;96.30
32728;DHT22;55292;51.844;19.246;2023-07-24T00:34:57;18.30;97.50
32728;DHT22;55292;51.844;19.246;2023-07-24T00:40:00;18.10;99.30
32728;DHT22;55292;51.844;19.246;2023-07-24T00:45:04;18.10;99.90
32728;DHT22;55292;51.844;19.246;2023-07-24T00:50:07;18.20;99.10
32728;DHT22;55292;51.844;19.246;2023-07-24T00:55:11;18.40;98.30
32728;DHT22;55292;51.844;19.246;2023-07-24T01:00:16;18.60;96.70
32728;DHT22;55292;51.844;19.246;2023-07-24T01:05:20;18.70;96.00
32728;DHT22;55292;51.844;19.246;2023-07-24T01:10:23;18.80;95.30
32728;DHT22;55292;51.844;19.246;2023-07-24T01:15:33;18.80;94.80
32728;DHT22;55292;51.844;19.246;2023-07-24T01:20:39;18.80;94.70
32728;DHT22;55292;51.844;19.246;2023-07-24T01:25:57;18.70;95.60
32728;DHT22;55292;51.844;19.246;2023-07-24T01:31:01;18.60;95.40
32728;DHT22;55292;51.844;19.246;2023-07-24T01:36:04;18.40;96.50
32728;DHT22;55292;51.844;19.246;2023-07-24T01:41:07;18.30;96.30
32728;DHT22;55292;51.844;19.246;2023-07-24T01:46:12;18.10;96.50
32728;DHT22;55292;51.844;19.246;2023-07-24T01:51:15;17.90;96.10
32728;DHT22;55292;51.844;19.246;2023-07-24T01:56:18;18.00;96.90
32728;DHT22;55292;51.844;19.246;2023-07-24T02:01:20;18.00;96.90
32728;DHT22;55292;51.844;19.246;2023-07-24T02:06:26;17.90;97.10
32728;DHT22;55292;51.844;19.246;2023-07-24T02:11:29;17.70;97.20
32728;DHT22;55292;51.844;19.246;2023-07-24T02:16:32;17.50;98.00
32728;DHT22;55292;51.844;19.246;2023-07-24T02:21:35;17.30;98.20
32728;DHT22;55292;51.844;19.246;2023-07-24T02:26:38;17.20;98.90
32728;DHT22;55292;51.844;19.246;2023-07-24T02:31:41;16.90;99.30
32728;DHT22;55292;51.844;19.246;2023-07-24T02:36:43;16.90;99.60
32728;DHT22;55292;51.844;19.246;2023-07-24T02:41:48;16.80;99.90
32728;DHT22;55292;51.844;19.246;2023-07-24T02:46:52;16.70;99.90
32728;DHT22;55292;51.844;19.246;2023-07-24T02:51:54;16.60;99.90
32728;DHT22;55292;51.844;19.246;2023-07-24T02:56:57;16.40;99.90
32728;DHT22;55292;51.844;19.246;2023-07-24T03:02:00;16.40;99.90
32728;DHT22;55292;51.844;19.246;2023-07-24T03:07:03;16.40;99.90
32728;DHT22;55292;51.844;19.246;2023-07-24T03:12:06;16.40;99.90
32728;DHT22;55292;51.844;19.246;2023-07-24T03:17:09;16.50;99.90
32728;DHT22;55292;51.844;19.246;2023-07-24T03:22:11;16.80;99.90
32728;DHT22;55292;51.844;19.246;2023-07-24T03:27:14;16.80;99.90
32728;DHT22;55292;51.844;19.246;2023-07-24T03:32:17;19.30;99.90
32728;DHT22;55292;51.844;19.246;2023-07-24T03:37:19;17.10;99.90
32728;DHT22;55292;51.844;19.246;2023-07-24T03:42:26;17.30;99.90
32728;DHT22;55292;51.844;19.246;2023-07-24T03:47:29;17.50;99.90
32728;DHT22;55292;51.844;19.246;2023-07-24T03:52:32;17.60;99.90
32728;DHT22;55292;51.844;19.246;2023-07-24T03:57:34;17.80;99.90
32728;DHT22;55292;51.844;19.246;2023-07-24T04:02:37;17.90;99.90
32728;DHT22;55292;51.844;19.246;2023-07-24T04:07:40;18.00;99.90
32728;DHT22;55292;51.844;19.246;2023-07-24T04:12:43;18.40;99.90
32728;DHT22;55292;51.844;19.246;2023-07-24T04:17:46;18.60;99.90
32728;DHT22;55292;51.844;19.246;2023-07-24T04:22:49;19.00;99.90
32728;DHT22;55292;51.844;19.246;2023-07-24T04:27:51;19.30;99.90
32728;DHT22;55292;51.844;19.246;2023-07-24T04:32:54;20.50;99.90
32728;DHT22;55292;51.844;19.246;2023-07-24T04:37:57;19.60;99.90
32728;DHT22;55292;51.844;19.246;2023-07-24T04:42:59;19.70;99.70
32728;DHT22;55292;51.844;19.246;2023-07-24T04:48:02;20.00;99.10
32728;DHT22;55292;51.844;19.246;2023-07-24T04:53:05;20.40;98.40
32728;DHT22;55292;51.844;19.246;2023-07-24T04:58:08;20.60;98.20
32728;DHT22;55292;51.844;19.246;2023-07-24T05:03:10;20.90;98.50
32728;DHT22;55292;51.844;19.246;2023-07-24T05:08:14;21.30;96.40
32728;DHT22;55292;51.844;19.246;2023-07-24T05:13:16;21.40;94.60
32728;DHT22;55292;51.844;19.246;2023-07-24T05:18:19;21.90;94.10
32728;DHT22;55292;51.844;19.246;2023-07-24T05:23:22;22.20;93.30
32728;DHT22;55292;51.844;19.246;2023-07-24T05:28:29;22.30;92.80
32728;DHT22;55292;51.844;19.246;2023-07-24T05:33:32;22.30;91.90
32728;DHT22;55292;51.844;19.246;2023-07-24T05:38:35;22.40;91.20
32728;DHT22;55292;51.844;19.246;2023-07-24T05:43:37;22.60;91.10
32728;DHT22;55292;51.844;19.246;2023-07-24T05:48:40;22.80;90.40
32728;DHT22;55292;51.844;19.246;2023-07-24T05:53:43;23.30;90.20
32728;DHT22;55292;51.844;19.246;2023-07-24T05:58:45;23.80;88.00
32728;DHT22;55292;51.844;19.246;2023-07-24T06:03:48;24.50;84.40
32728;DHT22;55292;51.844;19.246;2023-07-24T06:08:50;24.40;82.30
32728;DHT22;55292;51.844;19.246;2023-07-24T06:13:53;24.30;79.90
32728;DHT22;55292;51.844;19.246;2023-07-24T06:18:56;24.40;79.80
32728;DHT22;55292;51.844;19.246;2023-07-24T06:23:59;24.80;80.20
32728;DHT22;55292;51.844;19.246;2023-07-24T06:29:01;24.90;78.60
32728;DHT22;55292;51.844;19.246;2023-07-24T06:34:04;25.00;76.80
32728;DHT22;55292;51.844;19.246;2023-07-24T06:39:07;25.30;76.20
32728;DHT22;55292;51.844;19.246;2023-07-24T06:44:09;25.60;75.10
32728;DHT22;55292;51.844;19.246;2023-07-24T06:49:12;25.90;74.10
32728;DHT22;55292;51.844;19.246;2023-07-24T06:54:15;26.10;71.80
32728;DHT22;55292;51.844;19.246;2023-07-24T06:59:18;26.30;70.50
32728;DHT22;55292;51.844;19.246;2023-07-24T07:04:20;26.80;68.40
32728;DHT22;55292;51.844;19.246;2023-07-24T07:09:23;27.30;67.00
32728;DHT22;55292;51.844;19.246;2023-07-24T07:14:26;27.20;65.70
32728;DHT22;55292;51.844;19.246;2023-07-24T07:19:28;27.30;65.90
32728;DHT22;55292;51.844;19.246;2023-07-24T07:24:31;27.60;65.40
32728;DHT22;55292;51.844;19.246;2023-07-24T07:29:34;27.40;65.20
32728;DHT22;55292;51.844;19.246;2023-07-24T07:34:36;28.00;63.40
32728;DHT22;55292;51.844;19.246;2023-07-24T07:39:41;28.00;63.90
32728;DHT22;55292;51.844;19.246;2023-07-24T07:44:44;28.50;60.80
32728;DHT22;55292;51.844;19.246;2023-07-24T07:49:47;28.70;60.20
32728;DHT22;55292;51.844;19.246;2023-07-24T07:54:49;28.70;60.40
32728;DHT22;55292;51.844;19.246;2023-07-24T07:59:52;28.80;60.80
32728;DHT22;55292;51.844;19.246;2023-07-24T08:04:55;28.80;59.60
32728;DHT22;55292;51.844;19.246;2023-07-24T08:09:57;28.60;60.60
32728;DHT22;55292;51.844;19.246;2023-07-24T08:15:00;28.60;59.80
32728;DHT22;55292;51.844;19.246;2023-07-24T08:20:03;28.30;59.70
32728;DHT22;55292;51.844;19.246;2023-07-24T08:25:06;28.70;59.10
32728;DHT22;55292;51.844;19.246;2023-07-24T08:30:09;28.90;59.00
32728;DHT22;55292;51.844;19.246;2023-07-24T08:35:13;28.90;59.10
32728;DHT22;55292;51.844;19.246;2023-07-24T08:40:15;28.20;59.00
32728;DHT22;55292;51.844;19.246;2023-07-24T08:45:19;27.80;60.50
32728;DHT22;55292;51.844;19.246;2023-07-24T08:50:22;27.50;60.90
32728;DHT22;55292;51.844;19.246;2023-07-24T08:55:26;27.30;60.80
32728;DHT22;55292;51.844;19.246;2023-07-24T09:00:30;28.60;62.30
32728;DHT22;55292;51.844;19.246;2023-07-24T09:05:33;28.30;59.20
32728;DHT22;55292;51.844;19.246;2023-07-24T09:10:36;29.00;59.10
32728;DHT22;55292;51.844;19.246;2023-07-24T09:15:42;29.30;58.90
32728;DHT22;55292;51.844;19.246;2023-07-24T09:20:45;28.60;58.50
32728;DHT22;55292;51.844;19.246;2023-07-24T09:25:49;28.00;59.70
32728;DHT22;55292;51.844;19.246;2023-07-24T09:30:56;28.10;59.70
32728;DHT22;55292;51.844;19.246;2023-07-24T09:36:00;28.90;59.00
32728;DHT22;55292;51.844;19.246;2023-07-24T09:41:04;29.50;58.10
32728;DHT22;55292;51.844;19.246;2023-07-24T09:46:08;29.60;57.90
32728;DHT22;55292;51.844;19.246;2023-07-24T09:51:13;29.90;57.10
32728;DHT22;55292;51.844;19.246;2023-07-24T09:56:17;30.10;57.20
32728;DHT22;55292;51.844;19.246;2023-07-24T10:01:20;30.20;56.30
32728;DHT22;55292;51.844;19.246;2023-07-24T10:06:24;30.10;55.20
32728;DHT22;55292;51.844;19.246;2023-07-24T10:11:29;30.40;55.20
32728;DHT22;55292;51.844;19.246;2023-07-24T10:16:32;30.30;55.10
32728;DHT22;55292;51.844;19.246;2023-07-24T10:21:35;30.10;55.20
32728;DHT22;55292;51.844;19.246;2023-07-24T10:26:38;30.30;54.80
32728;DHT22;55292;51.844;19.246;2023-07-24T10:31:40;30.30;55.00
32728;DHT22;55292;51.844;19.246;2023-07-24T10:36:43;30.20;55.00
32728;DHT22;55292;51.844;19.246;2023-07-24T10:41:46;30.10;54.90
32728;DHT22;55292;51.844;19.246;2023-07-24T10:46:51;30.70;54.90
32728;DHT22;55292;51.844;19.246;2023-07-24T10:51:58;31.10;54.20
32728;DHT22;55292;51.844;19.246;2023-07-24T10:57:01;31.40;53.10
32728;DHT22;55292;51.844;19.246;2023-07-24T11:02:04;32.10;52.80
32728;DHT22;55292;51.844;19.246;2023-07-24T11:07:07;31.80;52.60
32728;DHT22;55292;51.844;19.246;2023-07-24T11:12:14;31.40;53.40
32728;DHT22;55292;51.844;19.246;2023-07-24T11:17:17;31.60;53.30
32728;DHT22;55292;51.844;19.246;2023-07-24T11:22:21;31.80;52.60
32728;DHT22;55292;51.844;19.246;2023-07-24T11:27:25;31.80;52.70
32728;DHT22;55292;51.844;19.246;2023-07-24T11:32:27;32.00;52.50
32728;DHT22;55292;51.844;19.246;2023-07-24T11:37:31;31.20;52.80
32728;DHT22;55292;51.844;19.246;2023-07-24T11:42:38;31.20;53.60
32728;DHT22;55292;51.844;19.246;2023-07-24T11:47:46;31.70;53.10
32728;DHT22;55292;51.844;19.246;2023-07-24T11:52:52;32.00;53.00
32728;DHT22;55292;51.844;19.246;2023-07-24T11:58:00;31.90;52.10
32728;DHT22;55292;51.844;19.246;2023-07-24T12:03:03;32.40;51.90
32728;DHT22;55292;51.844;19.246;2023-07-24T12:08:08;33.30;51.20
32728;DHT22;55292;51.844;19.246;2023-07-24T12:13:11;33.70;49.80
32728;DHT22;55292;51.844;19.246;2023-07-24T12:18:15;33.30;50.10
32728;DHT22;55292;51.844;19.246;2023-07-24T12:23:17;33.10;49.70
32728;DHT22;55292;51.844;19.246;2023-07-24T12:28:20;33.10;49.50
32728;DHT22;55292;51.844;19.246;2023-07-24T12:33:23;32.80;50.00
32728;DHT22;55292;51.844;19.246;2023-07-24T12:38:26;33.00;49.20
32728;DHT22;55292;51.844;19.246;2023-07-24T12:43:28;32.90;50.80
32728;DHT22;55292;51.844;19.246;2023-07-24T12:48:31;33.00;50.10
32728;DHT22;55292;51.844;19.246;2023-07-24T12:53:34;33.40;49.40
32728;DHT22;55292;51.844;19.246;2023-07-24T12:58:56;33.40;48.70
32728;DHT22;55292;51.844;19.246;2023-07-24T13:04:03;33.20;48.90
32728;DHT22;55292;51.844;19.246;2023-07-24T13:09:07;33.30;48.40
32728;DHT22;55292;51.844;19.246;2023-07-24T13:14:10;33.20;48.60
32728;DHT22;55292;51.844;19.246;2023-07-24T13:19:13;33.10;48.30
32728;DHT22;55292;51.844;19.246;2023-07-24T13:24:16;33.20;49.40
32728;DHT22;55292;51.844;19.246;2023-07-24T13:29:18;33.60;47.50
32728;DHT22;55292;51.844;19.246;2023-07-24T13:34:23;33.00;47.60
32728;DHT22;55292;51.844;19.246;2023-07-24T13:39:26;33.00;49.10
32728;DHT22;55292;51.844;19.246;2023-07-24T13:44:30;33.10;48.90
32728;DHT22;55292;51.844;19.246;2023-07-24T13:49:33;33.30;47.70
32728;DHT22;55292;51.844;19.246;2023-07-24T13:54:36;33.60;48.00
32728;DHT22;55292;51.844;19.246;2023-07-24T13:59:39;33.50;47.80
32728;DHT22;55292;51.844;19.246;2023-07-24T14:04:42;33.30;47.80
32728;DHT22;55292;51.844;19.246;2023-07-24T14:09:45;33.00;48.30
32728;DHT22;55292;51.844;19.246;2023-07-24T14:14:48;33.00;48.50
32728;DHT22;55292;51.844;19.246;2023-07-24T14:19:50;32.60;48.40
32728;DHT22;55292;51.844;19.246;2023-07-24T14:24:53;32.80;48.50
32728;DHT22;55292;51.844;19.246;2023-07-24T14:29:56;32.70;47.80
32728;DHT22;55292;51.844;19.246;2023-07-24T14:34:59;32.60;47.60
32728;DHT22;55292;51.844;19.246;2023-07-24T14:40:02;32.60;48.00
32728;DHT22;55292;51.844;19.246;2023-07-24T14:45:05;32.20;48.70
32728;DHT22;55292;51.844;19.246;2023-07-24T14:50:09;32.20;49.80
32728;DHT22;55292;51.844;19.246;2023-07-24T14:55:12;31.80;49.50
32728;DHT22;55292;51.844;19.246;2023-07-24T15:00:16;31.30;50.00
32728;DHT22;55292;51.844;19.246;2023-07-24T15:05:19;30.90;50.00
32728;DHT22;55292;51.844;19.246;2023-07-24T15:10:22;30.70;50.80
32728;DHT22;55292;51.844;19.246;2023-07-24T15:15:24;30.80;50.90
32728;DHT22;55292;51.844;19.246;2023-07-24T15:20:27;30.80;50.40
32728;DHT22;55292;51.844;19.246;2023-07-24T15:25:30;31.00;51.30
32728;DHT22;55292;51.844;19.246;2023-07-24T15:30:33;31.10;50.40
32728;DHT22;55292;51.844;19.246;2023-07-24T15:35:36;30.80;51.20
32728;DHT22;55292;51.844;19.246;2023-07-24T15:40:39;31.00;51.30
32728;DHT22;55292;51.844;19.246;2023-07-24T15:45:44;31.00;50.70
32728;DHT22;55292;51.844;19.246;2023-07-24T15:50:47;30.70;51.30
32728;DHT22;55292;51.844;19.246;2023-07-24T15:55:50;30.60;51.50
32728;DHT22;55292;51.844;19.246;2023-07-24T16:00:53;30.70;51.30
32728;DHT22;55292;51.844;19.246;2023-07-24T16:05:56;30.60;51.60
32728;DHT22;55292;51.844;19.246;2023-07-24T16:10:59;30.80;52.00
32728;DHT22;55292;51.844;19.246;2023-07-24T16:16:02;30.90;51.60
32728;DHT22;55292;51.844;19.246;2023-07-24T16:21:05;30.60;51.70
32728;DHT22;55292;51.844;19.246;2023-07-24T16:26:08;30.40;52.80
32728;DHT22;55292;51.844;19.246;2023-07-24T16:31:10;29.90;52.90
32728;DHT22;55292;51.844;19.246;2023-07-24T16:36:13;29.60;53.60
32728;DHT22;55292;51.844;19.246;2023-07-24T16:41:17;29.50;54.20
32728;DHT22;55292;51.844;19.246;2023-07-24T16:46:20;29.60;54.50
32728;DHT22;55292;51.844;19.246;2023-07-24T16:51:25;29.40;54.40
32728;DHT22;55292;51.844;19.246;2023-07-24T16:56:28;29.30;55.50
32728;DHT22;55292;51.844;19.246;2023-07-24T17:01:31;29.80;55.20
32728;DHT22;55292;51.844;19.246;2023-07-24T17:06:34;29.60;54.80
32728;DHT22;55292;51.844;19.246;2023-07-24T17:11:37;29.60;55.20
32728;DHT22;55292;51.844;19.246;2023-07-24T17:16:40;29.50;55.80
32728;DHT22;55292;51.844;19.246;2023-07-24T17:21:43;29.40;56.40
32728;DHT22;55292;51.844;19.246;2023-07-24T17:26:49;29.20;56.20
32728;DHT22;55292;51.844;19.246;2023-07-24T17:31:52;28.90;57.00
32728;DHT22;55292;51.844;19.246;2023-07-24T17:36:54;28.70;57.00
32728;DHT22;55292;51.844;19.246;2023-07-24T17:41:58;27.80;61.20
32728;DHT22;55292;51.844;19.246;2023-07-24T17:47:00;27.10;63.70
32728;DHT22;55292;51.844;19.246;2023-07-24T17:52:03;26.20;66.50
32728;DHT22;55292;51.844;19.246;2023-07-24T17:57:07;26.10;67.20
32728;DHT22;55292;51.844;19.246;2023-07-24T18:02:09;25.90;68.10
32728;DHT22;55292;51.844;19.246;2023-07-24T18:07:12;25.80;67.70
32728;DHT22;55292;51.844;19.246;2023-07-24T18:12:15;25.20;68.30
32728;DHT22;55292;51.844;19.246;2023-07-24T18:17:18;25.20;69.10
32728;DHT22;55292;51.844;19.246;2023-07-24T18:22:20;24.80;70.50
32728;DHT22;55292;51.844;19.246;2023-07-24T18:27:23;24.40;72.60
32728;DHT22;55292;51.844;19.246;2023-07-24T18:32:27;24.20;74.30
32728;DHT22;55292;51.844;19.246;2023-07-24T18:37:29;23.20;76.90
32728;DHT22;55292;51.844;19.246;2023-07-24T18:42:32;23.90;77.60
32728;DHT22;55292;51.844;19.246;2023-07-24T18:47:35;23.50;79.10
32728;DHT22;55292;51.844;19.246;2023-07-24T18:52:37;23.50;79.80
32728;DHT22;55292;51.844;19.246;2023-07-24T18:57:40;23.20;81.70
32728;DHT22;55292;51.844;19.246;2023-07-24T19:02:43;23.00;83.00
32728;DHT22;55292;51.844;19.246;2023-07-24T19:07:46;22.90;83.60
32728;DHT22;55292;51.844;19.246;2023-07-24T19:12:49;23.00;83.50
32728;DHT22;55292;51.844;19.246;2023-07-24T19:17:52;22.90;84.20
32728;DHT22;55292;51.844;19.246;2023-07-24T19:22:55;22.90;84.60
32728;DHT22;55292;51.844;19.246;2023-07-24T19:27:58;22.80;84.80
32728;DHT22;55292;51.844;19.246;2023-07-24T19:33:00;22.70;85.00
32728;DHT22;55292;51.844;19.246;2023-07-24T19:38:03;22.70;85.20
32728;DHT22;55292;51.844;19.246;2023-07-24T19:43:07;22.60;85.60
32728;DHT22;55292;51.844;19.246;2023-07-24T19:48:09;22.50;85.90
32728;DHT22;55292;51.844;19.246;2023-07-24T19:53:12;22.50;86.40
32728;DHT22;55292;51.844;19.246;2023-07-24T19:58:16;22.50;86.70
32728;DHT22;55292;51.844;19.246;2023-07-24T20:03:34;22.50;87.00
32728;DHT22;55292;51.844;19.246;2023-07-24T20:08:37;22.60;87.20
32728;DHT22;55292;51.844;19.246;2023-07-24T20:13:40;22.60;87.50
32728;DHT22;55292;51.844;19.246;2023-07-24T20:18:42;22.50;88.40
32728;DHT22;55292;51.844;19.246;2023-07-24T20:23:46;22.50;89.20
32728;DHT22;55292;51.844;19.246;2023-07-24T20:28:49;22.40;90.20
32728;DHT22;55292;51.844;19.246;2023-07-24T20:33:52;22.40;90.50
32728;DHT22;55292;51.844;19.246;2023-07-24T20:38:55;22.40;92.20
32728;DHT22;55292;51.844;19.246;2023-07-24T20:43:58;22.20;92.80
32728;DHT22;55292;51.844;19.246;2023-07-24T20:49:00;22.10;93.30
32728;DHT22;55292;51.844;19.246;2023-07-24T20:54:04;22.00;94.40
32728;DHT22;55292;51.844;19.246;2023-07-24T20:59:06;21.70;95.30
32728;DHT22;55292;51.844;19.246;2023-07-24T21:04:09;21.40;97.10
32728;DHT22;55292;51.844;19.246;2023-07-24T21:09:12;21.20;99.00
32728;DHT22;55292;51.844;19.246;2023-07-24T21:14:15;20.90;99.90
32728;DHT22;55292;51.844;19.246;2023-07-24T21:19:18;20.70;99.90
32728;DHT22;55292;51.844;19.246;2023-07-24T21:24:20;20.50;99.90
32728;DHT22;55292;51.844;19.246;2023-07-24T21:29:23;20.30;99.90
32728;DHT22;55292;51.844;19.246;2023-07-24T21:34:26;20.30;99.90
32728;DHT22;55292;51.844;19.246;2023-07-24T21:39:28;20.30;99.90
32728;DHT22;55292;51.844;19.246;2023-07-24T21:44:31;20.60;99.90
32728;DHT22;55292;51.844;19.246;2023-07-24T21:49:34;20.80;99.90
32728;DHT22;55292;51.844;19.246;2023-07-24T21:54:37;20.90;99.90
32728;DHT22;55292;51.844;19.246;2023-07-24T21:59:40;20.90;99.90
32728;DHT22;55292;51.844;19.246;2023-07-24T22:04:43;21.00;99.90
32728;DHT22;55292;51.844;19.246;2023-07-24T22:09:46;21.10;99.90
32728;DHT22;55292;51.844;19.246;2023-07-24T22:14:48;21.20;99.90
32728;DHT22;55292;51.844;19.246;2023-07-24T22:19:51;21.30;99.90
32728;DHT22;55292;51.844;19.246;2023-07-24T22:24:54;21.30;99.90
32728;DHT22;55292;51.844;19.246;2023-07-24T22:29:57;21.30;99.90
32728;DHT22;55292;51.844;19.246;2023-07-24T22:34:59;21.30;99.90
32728;DHT22;55292;51.844;19.246;2023-07-24T22:40:02;21.30;99.90
32728;DHT22;55292;51.844;19.246;2023-07-24T22:45:05;21.30;99.90
32728;DHT22;55292;51.844;19.246;2023-07-24T22:50:09;21.30;99.90
32728;DHT22;55292;51.844;19.246;2023-07-24T22:55:12;21.30;99.90
32728;DHT22;55292;51.844;19.246;2023-07-24T23:00:15;21.30;99.90
32728;DHT22;55292;51.844;19.246;2023-07-24T23:05:18;21.30;99.90
32728;DHT22;55292;51.844;19.246;2023-07-24T23:10:21;21.30;99.90
32728;DHT22;55292;51.844;19.246;2023-07-24T23:15:23;21.00;99.90
32728;DHT22;55292;51.844;19.246;2023-07-24T23:20:26;20.60;99.90
32728;DHT22;55292;51.844;19.246;2023-07-24T23:25:29;20.30;99.90
32728;DHT22;55292;51.844;19.246;2023-07-24T23:30:39;19.70;99.90
32728;DHT22;55292;51.844;19.246;2023-07-24T23:35:42;19.50;99.90
32728;DHT22;55292;51.844;19.246;2023-07-24T23:40:45;19.50;99.90
32728;DHT22;55292;51.844;19.246;2023-07-24T23:45:48;19.30;99.90
32728;DHT22;55292;51.844;19.246;2023-07-24T23:50:51;19.20;99.90
32728;DHT22;55292;51.844;19.246;2023-07-24T23:55:54;19.00;99.90
